createdAt,value
2019-02-08T00:01:30.445Z,31.40
2019-02-08T00:04:18.578Z,28.17
2019-02-08T00:07:07.807Z,30.07
2019-02-08T00:09:56.667Z,28.67
2019-02-08T00:12:49.219Z,30.30
2019-02-08T00:15:37.816Z,31.13
2019-02-08T00:18:26.018Z,34.83
2019-02-08T00:21:14.867Z,31.43
2019-02-08T00:24:03.008Z,26.00
2019-02-08T00:26:51.143Z,27.50
2019-02-08T00:29:39.105Z,32.27
2019-02-08T00:32:26.779Z,31.00
2019-02-08T00:38:03.396Z,29.43
2019-02-08T00:40:51.526Z,26.80
2019-02-08T00:43:39.638Z,24.50
2019-02-08T00:46:28.310Z,31.70
2019-02-08T00:49:16.832Z,31.10
2019-02-08T00:52:05.117Z,28.63
2019-02-08T00:54:54.078Z,27.63
2019-02-08T00:57:42.555Z,30.07
2019-02-08T01:03:25.533Z,31.90
2019-02-08T01:06:14.015Z,32.73
2019-02-08T01:09:11.066Z,32.60
2019-02-08T01:11:59.722Z,27.60
2019-02-08T01:14:48.116Z,26.03
2019-02-08T01:17:36.427Z,25.10
2019-02-08T01:20:24.875Z,28.87
2019-02-08T01:23:13.081Z,25.00
2019-02-08T01:26:01.874Z,29.73
2019-02-08T01:28:50.570Z,27.97
2019-02-08T01:31:38.784Z,30.30
2019-02-08T01:34:26.927Z,23.37
2019-02-08T01:37:15.553Z,25.80
2019-02-08T01:40:04.847Z,24.53
2019-02-08T01:42:53.411Z,26.20
2019-02-08T01:45:42.183Z,26.70
2019-02-08T01:48:30.479Z,24.60
2019-02-08T01:51:19.517Z,28.37
2019-02-08T01:54:07.348Z,23.23
2019-02-08T01:56:55.895Z,26.30
2019-02-08T01:59:43.847Z,25.40
2019-02-08T02:02:32.541Z,19.80
2019-02-08T02:05:21.575Z,26.33
2019-02-08T02:08:09.764Z,22.27
2019-02-08T02:10:58.516Z,22.43
2019-02-08T02:13:46.927Z,20.80
2019-02-08T02:16:35.197Z,19.87
2019-02-08T02:19:22.738Z,25.27
2019-02-08T02:22:10.966Z,22.83
2019-02-08T02:24:59.095Z,23.13
2019-02-08T02:27:46.915Z,25.87
2019-02-08T02:30:35.540Z,18.03
2019-02-08T02:33:24.119Z,15.80
2019-02-08T02:36:12.862Z,20.10
2019-02-08T02:39:01.454Z,19.27
2019-02-08T02:41:50.495Z,16.13
2019-02-08T02:44:38.583Z,16.00
2019-02-08T02:47:27.814Z,19.00
2019-02-08T02:50:16.051Z,15.37
2019-02-08T02:53:04.666Z,13.53
2019-02-08T02:55:53.433Z,17.03
2019-02-08T02:58:41.174Z,17.57
2019-02-08T03:01:29.471Z,20.80
2019-02-08T03:04:18.023Z,13.07
2019-02-08T03:07:06.257Z,17.77
2019-02-08T03:09:54.120Z,17.63
2019-02-08T03:12:48.110Z,18.47
2019-02-08T03:15:36.456Z,16.20
2019-02-08T03:18:24.845Z,16.23
2019-02-08T03:21:13.543Z,11.67
2019-02-08T03:24:02.312Z,14.20
2019-02-08T03:26:50.490Z,16.73
2019-02-08T03:29:38.860Z,15.93
2019-02-08T03:32:26.868Z,13.97
2019-02-08T03:35:20.478Z,11.70
2019-02-08T03:38:09.480Z,21.60
2019-02-08T03:40:57.552Z,15.70
2019-02-08T03:43:45.970Z,19.07
2019-02-08T03:46:35.243Z,19.17
2019-02-08T03:49:23.585Z,14.90
2019-02-08T03:52:11.881Z,15.30
2019-02-08T03:54:59.879Z,19.10
2019-02-08T03:57:48.651Z,17.70
2019-02-08T04:00:45.803Z,14.90
2019-02-08T04:03:34.463Z,12.53
2019-02-08T04:06:22.634Z,14.50
2019-02-08T04:09:11.278Z,15.37
2019-02-08T04:11:59.608Z,21.10
2019-02-08T04:14:47.730Z,17.73
2019-02-08T04:17:36.060Z,12.93
2019-02-08T04:20:25.581Z,15.00
2019-02-08T04:23:13.867Z,18.43
2019-02-08T04:26:01.651Z,16.80
2019-02-08T04:28:50.935Z,23.20
2019-02-08T04:31:39.093Z,18.97
2019-02-08T04:34:27.210Z,21.43
2019-02-08T04:37:15.282Z,21.17
2019-02-08T04:40:03.953Z,14.73
2019-02-08T04:42:52.475Z,23.70
2019-02-08T04:45:40.529Z,20.03
2019-02-08T04:48:29.169Z,17.90
2019-02-08T04:51:17.472Z,23.57
2019-02-08T04:54:06.175Z,25.30
2019-02-08T04:56:54.263Z,24.30
2019-02-08T04:59:42.322Z,24.03
2019-02-08T05:02:36.360Z,20.30
2019-02-08T05:05:25.251Z,29.20
2019-02-08T05:08:13.801Z,23.87
2019-02-08T05:11:02.248Z,26.40
2019-02-08T05:13:50.503Z,25.60
2019-02-08T05:16:39.339Z,29.77
2019-02-08T05:19:27.390Z,29.53
2019-02-08T05:22:15.892Z,20.43
2019-02-08T05:25:04.730Z,28.23
2019-02-08T05:27:53.330Z,23.97
2019-02-08T05:30:41.314Z,42.60
2019-02-08T05:33:30.237Z,30.03
2019-02-08T05:36:18.332Z,24.50
2019-02-08T05:39:10.470Z,28.60
2019-02-08T05:41:59.030Z,24.30
2019-02-08T05:44:47.916Z,28.07
2019-02-08T05:47:36.344Z,25.53
2019-02-08T05:50:25.614Z,31.93
2019-02-08T05:53:14.486Z,25.53
2019-02-08T05:56:03.278Z,29.57
2019-02-08T05:58:51.673Z,31.37
2019-02-08T06:01:39.550Z,27.30
2019-02-08T06:04:27.581Z,23.07
2019-02-08T06:07:15.731Z,26.83
2019-02-08T06:10:06.282Z,26.60
2019-02-08T06:12:55.329Z,23.97
2019-02-08T06:15:43.657Z,32.93
2019-02-08T06:18:31.731Z,26.07
2019-02-08T06:21:19.770Z,27.47
2019-02-08T06:24:07.911Z,23.50
2019-02-08T06:26:55.735Z,29.47
2019-02-08T06:29:44.178Z,22.60
2019-02-08T06:32:32.095Z,28.53
2019-02-08T06:35:22.134Z,28.33
2019-02-08T06:38:10.301Z,28.50
2019-02-08T06:40:58.601Z,24.03
2019-02-08T06:43:47.378Z,24.63
2019-02-08T06:46:36.310Z,22.83
2019-02-08T06:49:24.463Z,25.43
2019-02-08T06:52:13.329Z,24.03
2019-02-08T06:55:01.467Z,27.83
2019-02-08T06:58:07.162Z,32.27
2019-02-08T07:01:14.618Z,28.03
2019-02-08T07:04:17.829Z,22.10
2019-02-08T07:07:25.522Z,24.83
2019-02-08T07:10:32.518Z,24.00
2019-02-08T07:13:40.215Z,27.70
2019-02-08T07:16:45.943Z,23.00
2019-02-08T07:20:05.093Z,30.07
2019-02-08T07:23:15.178Z,20.70
2019-02-08T07:26:28.610Z,26.10
2019-02-08T07:29:38.386Z,23.57
2019-02-08T07:32:35.358Z,21.90
2019-02-08T07:35:41.281Z,28.63
2019-02-08T07:38:38.624Z,18.50
2019-02-08T07:41:57.090Z,24.07
2019-02-08T07:45:13.308Z,24.60
2019-02-08T07:48:14.724Z,21.30
2019-02-08T07:51:18.147Z,25.27
2019-02-08T07:54:32.826Z,22.20
2019-02-08T07:57:46.595Z,20.80
2019-02-08T08:00:54.556Z,21.60
2019-02-08T08:04:01.664Z,20.80
2019-02-08T08:07:16.375Z,22.57
2019-02-08T08:10:44.309Z,28.67
2019-02-08T08:13:58.065Z,20.63
2019-02-08T08:17:11.839Z,25.73
2019-02-08T08:20:07.325Z,24.27
2019-02-08T08:22:54.902Z,28.40
2019-02-08T08:26:04.742Z,27.80
2019-02-08T08:29:18.019Z,17.37
2019-02-08T08:32:17.977Z,28.83
2019-02-08T08:35:29.643Z,20.57
2019-02-08T08:39:07.842Z,21.90
2019-02-08T08:42:30.337Z,21.80
2019-02-08T08:45:54.803Z,19.40
2019-02-08T08:49:19.231Z,18.70
2019-02-08T08:52:29.293Z,17.83
2019-02-08T08:55:59.074Z,20.80
2019-02-08T08:59:18.821Z,13.13
2019-02-08T09:02:34.855Z,21.90
2019-02-08T09:06:08.427Z,19.70
2019-02-08T09:09:07.531Z,16.57
2019-02-08T09:12:11.280Z,17.00
2019-02-08T09:15:20.678Z,19.63
2019-02-08T09:18:24.980Z,13.93
2019-02-08T09:21:41.327Z,17.30
2019-02-08T09:24:50.446Z,22.63
2019-02-08T09:28:15.609Z,16.50
2019-02-08T09:31:32.789Z,17.00
2019-02-08T09:38:23.944Z,23.03
2019-02-08T09:41:44.386Z,19.17
2019-02-08T09:45:14.726Z,15.80
2019-02-08T09:48:35.734Z,16.03
2019-02-08T09:52:06.480Z,16.10
2019-02-08T09:55:42.255Z,16.20
2019-02-08T09:59:08.771Z,18.83
2019-02-08T10:02:35.547Z,15.50
2019-02-08T10:05:59.793Z,16.20
2019-02-08T10:09:36.290Z,15.97
2019-02-08T10:13:07.477Z,14.57
2019-02-08T10:16:44.148Z,18.03
2019-02-08T10:20:01.222Z,14.80
2019-02-08T10:23:29.210Z,16.63
2019-02-08T10:27:01.518Z,12.40
2019-02-08T10:30:29.462Z,14.20
2019-02-08T10:33:53.886Z,15.03
2019-02-08T10:37:29.030Z,17.50
2019-02-08T10:44:46.970Z,14.00
2019-02-08T10:48:11.890Z,11.90
2019-02-08T10:51:42.363Z,12.00
2019-02-08T10:55:04.058Z,12.23
2019-02-08T11:02:04.365Z,11.30
2019-02-08T11:05:29.718Z,11.47
2019-02-08T11:08:52.672Z,9.47
2019-02-08T11:12:24.310Z,8.53
2019-02-08T11:15:47.726Z,11.33
2019-02-08T11:19:11.376Z,7.87
2019-02-08T11:21:59.987Z,8.57
2019-02-08T11:24:48.383Z,10.77
2019-02-08T11:27:36.561Z,10.57
2019-02-08T11:30:24.571Z,7.30
2019-02-08T11:33:13.108Z,9.77
2019-02-08T11:36:02.546Z,8.83
2019-02-08T11:38:50.921Z,10.20
2019-02-08T11:41:39.590Z,12.03
2019-02-08T11:44:27.891Z,7.90
2019-02-08T11:47:16.594Z,9.53
2019-02-08T11:50:07.168Z,8.33
2019-02-08T11:52:55.313Z,10.10
2019-02-08T11:55:48.189Z,11.13
2019-02-08T11:58:36.446Z,5.90
2019-02-08T12:01:25.284Z,14.40
2019-02-08T12:04:15.153Z,7.47
2019-02-08T12:07:02.714Z,6.83
2019-02-08T12:09:50.930Z,5.53
2019-02-08T12:12:39.198Z,6.67
2019-02-08T12:15:27.551Z,4.90
2019-02-08T12:18:15.516Z,6.80
2019-02-08T12:21:03.339Z,9.30
2019-02-08T12:23:51.957Z,4.87
2019-02-08T12:26:40.298Z,10.67
2019-02-08T12:29:29.664Z,6.40
2019-02-08T12:32:18.449Z,6.33
2019-02-08T12:35:07.362Z,5.83
2019-02-08T12:37:55.508Z,7.50
2019-02-08T12:40:44.773Z,4.70
2019-02-08T12:43:33.845Z,7.17
2019-02-08T12:46:23.641Z,5.33
2019-02-08T12:49:12.019Z,7.30
2019-02-08T12:52:05.023Z,7.37
2019-02-08T12:54:53.575Z,5.67
2019-02-08T12:57:42.035Z,6.60
2019-02-08T13:00:42.110Z,5.40
2019-02-08T13:03:30.382Z,4.70
2019-02-08T13:06:19.986Z,4.97
2019-02-08T13:09:10.982Z,5.27
2019-02-08T13:11:59.773Z,3.80
2019-02-08T13:14:47.962Z,4.60
2019-02-08T13:17:35.644Z,4.83
2019-02-08T13:20:23.316Z,4.87
2019-02-08T13:23:11.947Z,6.77
2019-02-08T13:25:59.914Z,12.00
2019-02-08T13:28:48.584Z,6.13
2019-02-08T13:31:37.808Z,3.90
2019-02-08T13:34:27.140Z,4.60
2019-02-08T13:37:15.599Z,8.93
2019-02-08T13:40:05.784Z,5.50
2019-02-08T13:42:59.441Z,10.17
2019-02-08T13:45:48.549Z,4.60
2019-02-08T13:48:37.136Z,6.57
2019-02-08T13:51:26.831Z,8.43
2019-02-08T13:54:15.571Z,6.17
2019-02-08T13:57:04.567Z,8.97
2019-02-08T13:59:55.282Z,5.40
2019-02-08T14:02:44.532Z,4.80
2019-02-08T14:05:34.297Z,7.70
2019-02-08T14:08:23.120Z,5.40
2019-02-08T14:11:10.981Z,6.27
2019-02-08T14:13:59.012Z,6.57
2019-02-08T14:16:48.583Z,7.03
2019-02-08T14:19:37.648Z,5.00
2019-02-08T14:22:25.722Z,10.00
2019-02-08T14:25:14.215Z,5.00
2019-02-08T14:28:02.498Z,8.03
2019-02-08T14:30:50.853Z,5.80
2019-02-08T14:33:40.150Z,4.43
2019-02-08T14:36:28.351Z,4.07
2019-02-08T14:39:18.014Z,3.83
2019-02-08T14:42:07.047Z,6.07
2019-02-08T14:44:56.620Z,5.60
2019-02-08T14:47:49.126Z,5.97
2019-02-08T14:50:43.514Z,5.93
2019-02-08T14:53:32.732Z,6.63
2019-02-08T14:56:21.704Z,3.87
2019-02-08T14:59:10.232Z,4.37
2019-02-08T15:01:58.474Z,5.13
2019-02-08T15:04:47.946Z,4.23
2019-02-08T15:07:36.379Z,4.07
2019-02-08T15:10:30.448Z,2.83
2019-02-08T15:13:18.405Z,4.10
2019-02-08T15:16:06.958Z,4.30
2019-02-08T15:18:55.368Z,5.87
2019-02-08T15:21:43.511Z,5.03
2019-02-08T15:24:31.704Z,8.40
2019-02-08T15:27:24.272Z,3.80
2019-02-08T15:30:12.031Z,3.97
2019-02-08T15:33:01.502Z,5.90
2019-02-08T15:35:50.216Z,3.30
2019-02-08T15:38:39.911Z,3.47
2019-02-08T15:41:28.874Z,5.43
2019-02-08T15:44:26.879Z,2.33
2019-02-08T15:47:16.287Z,9.03
2019-02-08T15:50:06.075Z,2.73
2019-02-08T15:52:54.605Z,2.53
2019-02-08T15:55:46.353Z,3.67
2019-02-08T15:58:34.893Z,3.90
2019-02-08T16:01:27.332Z,3.90
2019-02-08T16:04:17.354Z,3.27
2019-02-08T16:07:06.231Z,7.53
2019-02-08T16:09:56.290Z,4.83
2019-02-08T16:12:44.814Z,4.30
2019-02-08T16:15:33.208Z,4.03
2019-02-08T16:18:21.511Z,5.77
2019-02-08T16:21:10.385Z,3.10
2019-02-08T16:23:59.000Z,9.43
2019-02-08T16:26:48.958Z,10.10
2019-02-08T16:29:37.639Z,4.73
2019-02-08T16:32:26.226Z,7.30
2019-02-08T16:35:16.574Z,7.43
2019-02-08T16:38:05.614Z,6.93
2019-02-08T16:40:54.555Z,5.13
2019-02-08T16:43:43.679Z,3.33
2019-02-08T16:46:33.623Z,7.60
2019-02-08T16:49:23.200Z,4.67
2019-02-08T16:52:12.674Z,7.67
2019-02-08T16:55:02.525Z,2.83
2019-02-08T16:57:51.854Z,3.53
2019-02-08T17:00:46.706Z,4.20
2019-02-08T17:03:35.994Z,2.97
2019-02-08T17:06:24.480Z,2.37
2019-02-08T17:09:14.315Z,2.30
2019-02-08T17:12:03.142Z,5.13
2019-02-08T17:14:52.302Z,5.47
2019-02-08T17:17:41.128Z,3.20
2019-02-08T17:20:40.606Z,6.27
2019-02-08T17:23:28.874Z,3.07
2019-02-08T17:26:18.117Z,3.50
2019-02-08T17:29:07.603Z,3.23
2019-02-08T17:31:56.294Z,4.07
2019-02-08T17:34:46.141Z,2.70
2019-02-08T17:37:35.639Z,3.07
2019-02-08T17:40:26.897Z,4.30
2019-02-08T17:43:15.606Z,2.23
2019-02-08T17:46:10.965Z,4.03
2019-02-08T17:49:00.691Z,2.13
2019-02-08T17:51:50.152Z,2.70
2019-02-08T17:54:41.588Z,6.63
2019-02-08T17:57:29.979Z,4.30
2019-02-08T18:03:36.987Z,5.20
2019-02-08T18:06:26.894Z,4.30
2019-02-08T18:09:17.431Z,6.50
2019-02-08T18:12:07.707Z,3.60
2019-02-08T18:14:55.964Z,5.40
2019-02-08T18:17:44.664Z,11.20
2019-02-08T18:20:35.631Z,7.17
2019-02-08T18:23:24.084Z,8.33
2019-02-08T18:26:12.880Z,4.83
2019-02-08T18:29:01.044Z,4.47
2019-02-08T18:31:50.205Z,4.50
2019-02-08T18:34:39.278Z,3.83
2019-02-08T18:37:28.942Z,5.40
2019-02-08T18:40:19.158Z,4.40
2019-02-08T18:43:07.508Z,9.00
2019-02-08T18:45:57.714Z,6.80
2019-02-08T18:48:47.229Z,4.90
2019-02-08T18:51:38.232Z,3.93
2019-02-08T18:54:27.246Z,6.63
2019-02-08T18:57:17.560Z,3.63
2019-02-08T19:00:11.183Z,5.77
2019-02-08T19:03:01.745Z,5.80
2019-02-08T19:05:52.120Z,4.73
2019-02-08T19:08:41.598Z,6.23
2019-02-08T19:11:29.701Z,7.20
2019-02-08T19:14:17.768Z,5.00
2019-02-08T19:17:13.391Z,7.03
2019-02-08T19:20:02.866Z,5.77
2019-02-08T19:22:51.638Z,5.70
2019-02-08T19:25:41.163Z,3.30
2019-02-08T19:28:29.128Z,7.07
2019-02-08T19:31:19.495Z,3.30
2019-02-08T19:34:09.909Z,4.63
2019-02-08T19:36:58.672Z,4.27
2019-02-08T19:39:47.397Z,3.47
2019-02-08T19:42:35.410Z,4.03
2019-02-08T19:45:24.102Z,3.40
2019-02-08T19:48:14.908Z,5.07
2019-02-08T19:51:03.519Z,4.10
2019-02-08T19:53:51.847Z,6.40
2019-02-08T19:56:40.661Z,4.23
2019-02-08T19:59:29.438Z,6.23
2019-02-08T20:02:18.580Z,4.33
2019-02-08T20:05:11.666Z,2.60
2019-02-08T20:08:02.440Z,6.17
2019-02-08T20:10:50.786Z,3.47
2019-02-08T20:13:39.502Z,4.03
2019-02-08T20:16:27.693Z,3.90
2019-02-08T20:19:15.448Z,7.03
2019-02-08T20:22:04.415Z,6.93
2019-02-08T20:24:53.498Z,3.87
2019-02-08T20:27:42.890Z,6.00
2019-02-08T20:30:32.328Z,5.33
2019-02-08T20:33:22.136Z,5.93
2019-02-08T20:36:11.307Z,4.63
2019-02-08T20:39:01.306Z,7.00
2019-02-08T20:41:49.747Z,4.20
2019-02-08T20:44:38.013Z,6.10
2019-02-08T20:50:27.586Z,2.97
2019-02-08T20:53:17.028Z,4.40
2019-02-08T20:56:05.318Z,5.67
2019-02-08T20:58:53.350Z,5.13
2019-02-08T21:01:41.223Z,3.97
2019-02-08T21:04:30.458Z,2.97
2019-02-08T21:07:20.014Z,4.67
2019-02-08T21:10:08.438Z,3.53
2019-02-08T21:12:56.666Z,3.93
2019-02-08T21:15:45.166Z,3.57
2019-02-08T21:18:35.420Z,4.03
2019-02-08T21:21:24.346Z,2.70
2019-02-08T21:24:13.714Z,1.93
2019-02-08T21:27:02.766Z,3.20
2019-02-08T21:29:52.215Z,4.27
2019-02-08T21:35:30.047Z,3.30
2019-02-08T21:38:18.863Z,3.40
2019-02-08T21:41:07.450Z,4.83
2019-02-08T21:43:55.882Z,2.93
2019-02-08T21:46:45.105Z,2.73
2019-02-08T21:49:34.638Z,4.47
2019-02-08T21:52:23.622Z,4.50
2019-02-08T21:55:14.403Z,3.27
2019-02-08T21:58:02.941Z,6.50
2019-02-08T22:00:53.293Z,1.70
2019-02-08T22:03:41.810Z,3.23
2019-02-08T22:06:30.902Z,3.70
2019-02-08T22:09:19.609Z,2.97
2019-02-08T22:12:07.782Z,5.17
2019-02-08T22:14:56.415Z,2.50
2019-02-08T22:17:45.164Z,4.60
2019-02-08T22:20:33.080Z,2.60
2019-02-08T22:23:21.814Z,2.90
2019-02-08T22:26:10.658Z,3.03
2019-02-08T22:29:01.028Z,3.50
2019-02-08T22:31:49.959Z,4.30
2019-02-08T22:34:39.581Z,2.87
2019-02-08T22:37:28.796Z,7.70
2019-02-08T22:40:18.197Z,2.70
2019-02-08T22:43:06.649Z,4.43
2019-02-08T22:45:55.494Z,2.83
2019-02-08T22:48:50.549Z,3.27
2019-02-08T22:51:39.559Z,3.37
2019-02-08T22:54:28.247Z,3.77
2019-02-08T22:57:17.160Z,1.70
2019-02-08T23:00:15.821Z,3.30
2019-02-08T23:03:04.871Z,2.43
2019-02-08T23:05:53.607Z,4.00
2019-02-08T23:08:41.321Z,2.57
2019-02-08T23:11:29.612Z,4.27
2019-02-08T23:14:17.807Z,2.63
2019-02-08T23:17:06.032Z,4.43
2019-02-08T23:19:54.092Z,2.77
2019-02-08T23:22:42.126Z,2.87
2019-02-08T23:25:30.413Z,5.23
2019-02-08T23:28:18.526Z,4.00
2019-02-08T23:31:07.300Z,2.50
2019-02-08T23:33:55.781Z,4.10
2019-02-08T23:36:44.588Z,4.40
2019-02-08T23:39:33.419Z,3.50
2019-02-08T23:42:22.353Z,6.17
2019-02-08T23:45:15.002Z,6.13
2019-02-08T23:48:06.091Z,4.27
2019-02-08T23:50:54.210Z,2.43
2019-02-08T23:53:42.450Z,3.00
2019-02-08T23:56:30.270Z,4.10
2019-02-08T23:59:19.034Z,3.70
